Time;durP1;ratioP1;P1;durP2;ratioP2;P2;SDS_P1;SDS_P2;PMS_P1;PMS_P2;Temp;Humidity;BMP_temperature;BMP_pressure;BME280_temperature;BME280_humidity;BME280_pressure;Samples;Min_cycle;Max_cycle;Signal;HPM_P1;HPM_P2
2022/09/30 00:00:28;;;;;;;4.47;3.97;;;11.90;99.90;;;;;;4979375;28;21004;-65
2022/09/30 00:02:54;;;;;;;3.97;3.45;;;11.80;99.90;;;;;;4998557;28;20237;-65
2022/09/30 00:05:21;;;;;;;4.95;4.00;;;11.50;99.90;;;;;;4998064;28;20237;-65
2022/09/30 00:07:48;;;;;;;4.45;4.05;;;11.80;99.90;;;;;;4994170;28;20664;-65
2022/09/30 00:10:16;;;;;;;5.15;3.97;;;12.00;99.90;;;;;;4982717;28;20779;-65
2022/09/30 00:12:43;;;;;;;4.78;3.90;;;11.80;99.90;;;;;;5001581;28;20213;-65
2022/09/30 00:15:10;;;;;;;4.88;3.90;;;11.80;99.90;;;;;;4992164;28;20606;-65
2022/09/30 00:17:38;;;;;;;3.58;3.20;;;11.70;99.90;;;;;;4995672;28;20199;-65
2022/09/30 00:20:07;;;;;;;5.47;3.80;;;11.80;99.90;;;;;;5011383;28;20198;-65
2022/09/30 00:22:33;;;;;;;3.97;3.58;;;11.90;99.90;;;;;;4987212;28;20493;-65
2022/09/30 00:25:00;;;;;;;4.88;4.18;;;11.80;99.90;;;;;;5005916;28;20222;-65
2022/09/30 00:27:27;;;;;;;6.15;4.10;;;11.70;99.90;;;;;;4983449;28;20202;-65
2022/09/30 00:29:54;;;;;;;6.75;4.22;;;11.50;99.90;;;;;;4989599;28;20313;-65
2022/09/30 00:32:21;;;;;;;4.35;3.88;;;11.70;99.90;;;;;;4997359;28;20202;-65
2022/09/30 00:34:49;;;;;;;4.55;4.00;;;11.60;99.90;;;;;;5004439;28;20663;-65
2022/09/30 00:37:15;;;;;;;4.13;3.72;;;11.70;99.90;;;;;;4993183;28;21070;-65
2022/09/30 00:39:42;;;;;;;4.18;3.65;;;11.70;99.90;;;;;;4993095;28;20228;-64
2022/09/30 00:42:13;;;;;;;5.38;4.20;;;11.60;99.90;;;;;;4983149;28;20202;-65
2022/09/30 00:44:50;;;;;;;4.45;4.05;;;11.70;99.90;;;;;;4999105;28;20234;-64
2022/09/30 00:47:38;;;;;;;8.32;3.88;;;11.70;99.90;;;;;;4986104;28;23064;-65
2022/09/30 00:50:18;;;;;;;5.03;4.15;;;11.60;99.90;;;;;;4998627;28;20199;-65
2022/09/30 00:52:50;;;;;;;4.13;3.72;;;11.60;99.90;;;;;;5007555;28;20198;-65
2022/09/30 00:55:29;;;;;;;6.07;4.22;;;10.40;99.90;;;;;;4999254;28;20216;-65
2022/09/30 00:57:58;;;;;;;5.68;4.50;;;11.70;99.90;;;;;;4978833;28;20206;-65
2022/09/30 01:00:25;;;;;;;7.43;4.65;;;11.70;99.90;;;;;;4991895;28;20207;-65
2022/09/30 01:02:52;;;;;;;5.05;4.50;;;11.70;99.90;;;;;;4994419;28;20329;-65
2022/09/30 01:05:20;;;;;;;5.53;4.85;;;11.60;99.90;;;;;;4993092;28;20230;-65
2022/09/30 01:07:48;;;;;;;7.30;5.03;;;11.60;99.90;;;;;;5003158;28;20692;-65
2022/09/30 01:10:15;;;;;;;5.22;4.72;;;;;;;;;;4994294;28;20225;-65
2022/09/30 01:12:42;;;;;;;5.38;4.78;;;13.70;99.90;;;;;;4982945;28;20209;-65
2022/09/30 01:15:12;;;;;;;4.70;4.03;;;11.60;99.90;;;;;;4992480;28;20230;-65
2022/09/30 01:17:50;;;;;;;4.60;4.10;;;11.70;99.90;;;;;;4988713;28;20206;-65
2022/09/30 01:20:54;;;;;;;6.00;4.72;;;11.60;99.90;;;;;;5009684;28;20198;-65
2022/09/30 01:23:57;;;;;;;5.53;4.93;;;11.60;99.90;;;;;;5010144;28;20198;-65
2022/09/30 01:27:03;;;;;;;7.30;5.20;;;11.60;99.90;;;;;;4966153;28;20210;-65
2022/09/30 01:30:06;;;;;;;9.35;5.03;;;11.60;99.90;;;;;;4980702;28;20198;-65
2022/09/30 01:33:08;;;;;;;5.10;4.35;;;11.70;99.90;;;;;;4996203;28;20203;-65
2022/09/30 01:35:50;;;;;;;8.65;4.55;;;11.60;99.90;;;;;;5003443;28;20790;-65
2022/09/30 01:38:28;;;;;;;5.03;4.53;;;12.00;99.90;;;;;;5005843;28;20197;-65
2022/09/30 01:41:03;;;;;;;6.45;5.30;;;11.50;99.90;;;;;;4993242;28;20296;-65
2022/09/30 01:43:39;;;;;;;6.47;5.10;;;11.60;99.90;;;;;;5008448;28;20197;-65
2022/09/30 01:46:14;;;;;;;4.80;4.40;;;11.50;99.90;;;;;;4988581;28;20709;-65
2022/09/30 01:48:49;;;;;;;5.40;4.90;;;11.60;99.90;;;;;;4990109;28;20214;-65
2022/09/30 01:51:21;;;;;;;5.72;5.22;;;11.60;99.90;;;;;;5002836;28;20705;-65
2022/09/30 01:53:54;;;;;;;8.68;4.95;;;11.50;99.90;;;;;;5002578;28;20221;-64
2022/09/30 01:56:29;;;;;;;6.72;5.18;;;11.50;99.90;;;;;;4991407;28;20212;-65
2022/09/30 01:59:00;;;;;;;5.82;5.10;;;11.40;99.90;;;;;;4964522;28;21775;-65
2022/09/30 02:01:31;;;;;;;7.00;4.97;;;11.40;99.90;;;;;;5006001;28;20202;-64
2022/09/30 02:04:05;;;;;;;6.40;5.10;;;11.40;99.90;;;;;;4986929;28;20206;-65
2022/09/30 02:06:36;;;;;;;6.00;5.18;;;11.30;99.90;;;;;;4990678;28;20305;-65
2022/09/30 02:09:07;;;;;;;5.75;5.03;;;11.30;99.90;;;;;;5001705;28;20198;-65
2022/09/30 02:11:36;;;;;;;5.30;4.80;;;11.30;99.90;;;;;;4994806;28;20217;-64
2022/09/30 02:14:06;;;;;;;5.63;4.60;;;;;;;;;;4979445;28;20226;-66
2022/09/30 02:16:39;;;;;;;5.05;4.60;;;11.20;99.90;;;;;;4996877;28;21084;-64
2022/09/30 02:19:14;;;;;;;6.85;5.35;;;11.10;99.90;;;;;;4983603;28;20202;-65
2022/09/30 02:21:45;;;;;;;7.35;5.40;;;11.10;99.90;;;;;;5002661;28;20200;-65
2022/09/30 02:24:16;;;;;;;5.78;5.10;;;11.10;99.90;;;;;;4997525;28;20206;-65
2022/09/30 02:26:47;;;;;;;7.65;4.95;;;10.90;99.90;;;;;;4998828;28;20202;-65
2022/09/30 02:29:18;;;;;;;5.00;4.45;;;10.60;99.90;;;;;;4965073;28;21349;-65
2022/09/30 02:31:49;;;;;;;5.97;4.85;;;11.20;99.90;;;;;;5000668;28;21081;-65
2022/09/30 02:34:21;;;;;;;5.50;4.70;;;11.00;99.90;;;;;;4975995;28;24216;-65
2022/09/30 02:36:55;;;;;;;5.68;4.70;;;10.70;99.90;;;;;;5005322;28;20241;-65
2022/09/30 02:39:27;;;;;;;5.43;4.88;;;10.90;99.90;;;;;;5001139;28;20206;-65
2022/09/30 02:42:00;;;;;;;6.18;4.95;;;10.70;99.90;;;;;;5004580;28;20198;-64
2022/09/30 02:44:27;;;;;;;5.55;4.80;;;10.90;99.90;;;;;;4994764;28;20207;-65
2022/09/30 02:46:59;;;;;;;6.50;4.65;;;10.90;99.90;;;;;;4978139;28;20201;-64
2022/09/30 02:49:36;;;;;;;7.13;4.97;;;10.80;99.90;;;;;;4992009;28;20210;-65
2022/09/30 02:52:14;;;;;;;5.68;5.05;;;10.90;99.90;;;;;;4990660;28;20210;-65
2022/09/30 02:54:48;;;;;;;5.75;5.15;;;10.80;99.90;;;;;;5006621;28;20198;-65
2022/09/30 02:57:20;;;;;;;6.20;5.32;;;11.00;99.90;;;;;;4988598;28;20546;-65
2022/09/30 02:59:51;;;;;;;5.72;5.18;;;10.80;99.90;;;;;;5009068;28;20210;-65
2022/09/30 03:02:18;;;;;;;6.25;5.30;;;10.80;99.90;;;;;;4975456;28;21429;-64
2022/09/30 03:04:48;;;;;;;5.57;4.97;;;10.90;99.90;;;;;;4981914;28;20228;-65
2022/09/30 03:07:15;;;;;;;5.90;5.03;;;10.80;99.90;;;;;;4986283;28;20207;-64
2022/09/30 03:09:41;;;;;;;7.15;4.95;;;10.70;99.90;;;;;;5001433;28;20229;-65
2022/09/30 03:12:16;;;;;;;6.10;5.35;;;10.90;99.90;;;;;;5001626;28;20202;-65
2022/09/30 03:15:13;;;;;;;5.32;4.78;;;10.90;99.90;;;;;;4995612;28;20229;-65
2022/09/30 03:17:59;;;;;;;7.00;5.30;;;10.90;99.90;;;;;;4968078;28;20206;-64
2022/09/30 03:20:52;;;;;;;9.52;6.60;;;11.20;99.90;;;;;;5001045;28;20297;-65
2022/09/30 03:23:52;;;;;;;6.22;5.35;;;10.90;99.90;;;;;;4992291;28;20238;-65
2022/09/30 03:26:29;;;;;;;5.38;4.88;;;10.90;99.90;;;;;;5002606;28;20256;-65
2022/09/30 03:29:09;;;;;;;6.22;5.07;;;10.90;99.90;;;;;;4989841;28;20210;-64
2022/09/30 03:31:44;;;;;;;6.15;4.85;;;11.00;99.90;;;;;;4987223;28;20604;-64
2022/09/30 03:34:20;;;;;;;7.40;4.68;;;10.70;99.90;;;;;;4981796;28;20205;-64
2022/09/30 03:37:01;;;;;;;5.82;5.22;;;10.60;99.90;;;;;;4988342;28;20210;-64
2022/09/30 03:39:37;;;;;;;5.97;4.97;;;10.70;99.90;;;;;;5012406;28;20217;-64
2022/09/30 03:42:10;;;;;;;5.50;5.00;;;10.70;99.90;;;;;;5009941;28;20208;-64
2022/09/30 03:44:42;;;;;;;6.60;5.40;;;10.70;99.90;;;;;;5000145;28;20198;-63
2022/09/30 03:47:12;;;;;;;5.97;5.05;;;10.70;99.90;;;;;;5004015;28;20667;-64
2022/09/30 03:49:43;;;;;;;7.60;5.22;;;10.60;99.90;;;;;;4977254;28;20233;-63
2022/09/30 03:52:13;;;;;;;6.10;5.45;;;10.70;99.90;;;;;;4988777;28;20198;-64
2022/09/30 03:54:47;;;;;;;5.63;4.53;;;10.50;99.90;;;;;;5005323;28;20565;-63
2022/09/30 03:57:14;;;;;;;5.93;5.32;;;10.40;99.90;;;;;;5006818;28;21225;-65
2022/09/30 03:59:40;;;;;;;6.18;4.40;;;10.50;99.90;;;;;;4994253;28;20221;-65
2022/09/30 04:02:12;;;;;;;6.90;5.43;;;10.60;99.90;;;;;;4987347;28;20217;-65
2022/09/30 04:04:39;;;;;;;5.70;5.15;;;10.60;99.90;;;;;;5004875;28;20222;-65
2022/09/30 04:07:06;;;;;;;5.72;5.13;;;11.80;99.90;;;;;;4955792;28;20212;-65
2022/09/30 04:09:35;;;;;;;5.93;5.13;;;10.60;99.90;;;;;;4994524;28;20228;-65
2022/09/30 04:12:02;;;;;;;8.40;5.35;;;10.70;99.90;;;;;;5011093;28;20298;-64
2022/09/30 04:14:29;;;;;;;6.00;5.28;;;12.00;99.90;;;;;;4988464;28;20227;-65
2022/09/30 04:16:56;;;;;;;6.32;5.72;;;10.80;99.90;;;;;;4989366;28;20203;-65
2022/09/30 04:19:23;;;;;;;5.55;5.05;;;8.10;99.90;;;;;;4972386;28;20206;-64
2022/09/30 04:21:51;;;;;;;6.00;5.32;;;10.70;99.90;;;;;;4952016;28;20209;-64
2022/09/30 04:24:18;;;;;;;5.75;5.15;;;10.70;99.90;;;;;;4968359;28;20215;-65
2022/09/30 04:26:46;;;;;;;5.35;4.85;;;10.70;99.90;;;;;;4983670;28;20260;-65
2022/09/30 04:29:13;;;;;;;5.28;4.80;;;10.50;99.90;;;;;;4962933;28;20246;-66
2022/09/30 04:31:39;;;;;;;6.05;5.22;;;10.50;99.90;;;;;;4946530;28;20223;-64
2022/09/30 04:34:06;;;;;;;5.35;4.72;;;10.40;99.90;;;;;;4961854;28;20219;-65
2022/09/30 04:36:33;;;;;;;5.68;4.95;;;10.40;99.90;;;;;;4959745;28;20203;-66
2022/09/30 04:39:00;;;;;;;10.45;5.20;;;7.30;99.90;;;;;;4961867;28;20207;-65
2022/09/30 04:41:28;;;;;;;7.28;4.88;;;10.40;99.90;;;;;;4981893;28;20223;-65
2022/09/30 04:43:56;;;;;;;6.47;5.13;;;10.60;99.90;;;;;;4974725;28;20226;-65
2022/09/30 04:46:23;;;;;;;5.72;5.15;;;10.40;99.90;;;;;;4968476;28;20235;-63
2022/09/30 04:48:50;;;;;;;8.95;5.50;;;10.30;99.90;;;;;;4967926;28;20232;-62
2022/09/30 04:51:18;;;;;;;5.38;4.88;;;10.40;99.90;;;;;;4954721;28;20211;-65
2022/09/30 04:53:48;;;;;;;8.02;4.60;;;10.20;99.90;;;;;;4956094;28;20223;-65
2022/09/30 04:56:17;;;;;;;5.60;5.10;;;10.70;99.90;;;;;;4982851;28;21024;-65
2022/09/30 04:58:44;;;;;;;9.65;5.03;;;10.60;99.90;;;;;;4981263;28;20925;-63
2022/09/30 05:01:14;;;;;;;5.40;4.90;;;10.30;99.90;;;;;;4958443;28;20262;-64
2022/09/30 05:03:42;;;;;;;6.63;5.60;;;10.50;99.90;;;;;;4958282;28;20246;-63
2022/09/30 05:06:09;;;;;;;5.93;4.82;;;10.60;99.90;;;;;;4991802;23;20237;-65
2022/09/30 05:08:37;;;;;;;6.68;5.18;;;;;;;;;;4942109;28;20713;-65
2022/09/30 05:11:07;;;;;;;5.47;4.97;;;10.50;99.90;;;;;;4999558;28;20211;-65
2022/09/30 05:13:36;;;;;;;6.50;5.03;;;10.50;99.90;;;;;;4982765;28;20202;-62
2022/09/30 05:16:03;;;;;;;5.75;5.00;;;10.50;99.90;;;;;;5000190;28;20214;-63
2022/09/30 05:18:32;;;;;;;8.90;5.78;;;7.60;99.90;;;;;;4968775;28;21737;-63
2022/09/30 05:20:59;;;;;;;6.53;5.20;;;10.60;99.90;;;;;;5001646;28;20297;-62
2022/09/30 05:23:29;;;;;;;8.30;5.72;;;10.60;99.90;;;;;;4953296;28;20231;-63
2022/09/30 05:25:56;;;;;;;5.93;5.30;;;10.60;99.90;;;;;;4992895;28;20283;-62
2022/09/30 05:28:24;;;;;;;6.22;5.63;;;10.70;99.90;;;;;;5006784;28;20261;-62
2022/09/30 05:30:56;;;;;;;6.90;5.82;;;10.70;99.90;;;;;;5005478;28;20690;-62
2022/09/30 05:33:23;;;;;;;6.90;5.72;;;10.80;99.90;;;;;;4994366;28;20202;-62
2022/09/30 05:35:52;;;;;;;6.88;6.18;;;10.80;99.90;;;;;;5004610;28;20194;-62
2022/09/30 05:38:18;;;;;;;9.25;6.25;;;10.80;99.90;;;;;;4982614;28;20947;-63
2022/09/30 05:40:45;;;;;;;6.88;5.97;;;10.90;99.90;;;;;;4994583;28;20213;-63
2022/09/30 05:43:12;;;;;;;7.47;6.45;;;10.90;99.90;;;;;;5007633;28;20210;-63
2022/09/30 05:45:39;;;;;;;6.55;5.95;;;10.90;99.90;;;;;;5005012;28;20240;-63
2022/09/30 05:48:06;;;;;;;6.10;5.50;;;11.00;99.90;;;;;;4996767;28;20213;-63
2022/09/30 05:50:33;;;;;;;7.82;5.97;;;11.00;99.90;;;;;;5003746;28;20225;-64
2022/09/30 05:53:01;;;;;;;6.90;6.07;;;11.00;99.90;;;;;;4984672;28;20213;-63
2022/09/30 05:55:28;;;;;;;6.95;5.78;;;11.10;99.90;;;;;;4999376;28;20215;-63
2022/09/30 05:57:55;;;;;;;6.78;6.07;;;11.10;99.90;;;;;;4990015;28;20835;-63
2022/09/30 06:00:22;;;;;;;6.50;5.38;;;11.10;99.90;;;;;;5012626;28;20202;-64
2022/09/30 06:02:52;;;;;;;6.70;5.80;;;11.00;99.90;;;;;;4999215;28;20203;-63
2022/09/30 06:05:18;;;;;;;6.00;5.40;;;11.10;99.90;;;;;;5007218;28;21137;-63
2022/09/30 06:07:45;;;;;;;6.65;5.97;;;11.10;99.90;;;;;;4966367;28;20205;-63
2022/09/30 06:10:13;;;;;;;9.15;6.18;;;11.10;99.90;;;;;;5005821;28;20209;-63
2022/09/30 06:12:40;;;;;;;12.73;6.43;;;11.20;99.90;;;;;;4990982;28;21044;-64
2022/09/30 06:15:08;;;;;;;7.85;5.88;;;11.20;99.90;;;;;;5010684;28;20199;-63
2022/09/30 06:17:35;;;;;;;7.65;5.90;;;11.00;99.90;;;;;;5007226;28;20194;-63
2022/09/30 06:20:04;;;;;;;7.05;6.20;;;11.20;99.90;;;;;;4998075;28;20575;-63
2022/09/30 06:22:34;;;;;;;11.65;6.57;;;11.20;99.90;;;;;;4988552;28;20219;-63
2022/09/30 06:25:02;;;;;;;12.73;6.80;;;11.20;99.90;;;;;;5006498;28;20293;-62
2022/09/30 06:27:30;;;;;;;6.80;6.07;;;11.20;99.90;;;;;;4994891;28;20226;-62
2022/09/30 06:29:57;;;;;;;7.95;6.80;;;11.20;99.90;;;;;;5001702;28;20763;-63
2022/09/30 06:32:25;;;;;;;3.65;2.70;;;11.20;99.90;;;;;;4999358;28;20962;-63
2022/09/30 06:34:54;;;;;;;11.55;7.40;;;11.50;99.90;;;;;;4980156;28;20229;-63
2022/09/30 06:37:21;;;;;;;7.75;6.78;;;11.50;99.90;;;;;;5008111;28;20707;-62
2022/09/30 06:39:48;;;;;;;8.65;7.28;;;11.40;99.90;;;;;;4975804;28;20202;-63
2022/09/30 06:42:15;;;;;;;9.35;7.25;;;11.60;99.90;;;;;;4995151;28;20226;-63
2022/09/30 06:44:43;;;;;;;7.35;6.60;;;11.10;99.90;;;;;;4999309;28;20218;-63
2022/09/30 06:47:10;;;;;;;7.68;6.45;;;11.20;99.90;;;;;;5003057;28;20230;-64
2022/09/30 06:49:37;;;;;;;9.20;7.13;;;;;;;;;;4988035;28;21030;-63
2022/09/30 06:52:04;;;;;;;9.75;7.43;;;11.20;99.90;;;;;;5003152;28;20206;-63
2022/09/30 06:54:31;;;;;;;9.15;7.75;;;11.20;99.90;;;;;;4977164;28;20202;-63
2022/09/30 06:56:58;;;;;;;7.93;7.13;;;11.20;99.90;;;;;;5006103;28;20728;-63
2022/09/30 06:59:26;;;;;;;9.68;7.43;;;11.10;99.90;;;;;;4990826;28;20210;-63
2022/09/30 07:01:54;;;;;;;9.50;6.90;;;12.70;99.90;;;;;;5009011;28;20439;-62
2022/09/30 07:04:21;;;;;;;7.93;7.05;;;11.20;99.90;;;;;;5007715;28;20202;-63
2022/09/30 07:06:48;;;;;;;9.10;7.60;;;11.20;99.90;;;;;;4993829;28;20229;-63
2022/09/30 07:09:15;;;;;;;8.30;7.45;;;11.20;99.90;;;;;;5017125;28;20677;-63
2022/09/30 07:11:43;;;;;;;7.93;7.07;;;11.20;99.90;;;;;;4983810;28;20198;-63
2022/09/30 07:14:12;;;;;;;11.85;8.32;;;11.30;99.90;;;;;;4992590;28;20229;-63
2022/09/30 07:16:39;;;;;;;12.98;8.82;;;11.30;99.90;;;;;;5011340;28;20209;-63
2022/09/30 07:19:07;;;;;;;10.60;8.25;;;11.30;99.90;;;;;;5009396;28;20209;-63
2022/09/30 07:21:34;;;;;;;10.38;8.07;;;11.40;99.90;;;;;;4997782;28;20198;-63
2022/09/30 07:24:02;;;;;;;11.40;8.48;;;;;;;;;;4991399;28;20610;-63
2022/09/30 07:26:29;;;;;;;12.05;8.38;;;11.60;99.90;;;;;;4958628;28;20710;-64
2022/09/30 07:28:56;;;;;;;8.55;7.75;;;11.20;99.90;;;;;;4991413;28;20223;-64
2022/09/30 07:31:24;;;;;;;7.95;7.07;;;;;;;;;;4971636;28;20226;-64
2022/09/30 07:33:51;;;;;;;8.70;7.90;;;11.50;99.90;;;;;;4982751;28;20249;-63
2022/09/30 07:36:25;;;;;;;8.43;7.32;;;11.50;99.90;;;;;;5000551;28;20225;-64
2022/09/30 07:38:53;;;;;;;8.98;7.57;;;11.40;99.90;;;;;;4986748;28;20222;-64
2022/09/30 07:41:24;;;;;;;8.63;7.57;;;11.10;99.90;;;;;;4978907;28;20225;-64
2022/09/30 07:43:51;;;;;;;12.88;7.63;;;11.70;99.90;;;;;;4994271;28;20248;-64
2022/09/30 07:46:23;;;;;;;8.85;7.38;;;11.70;99.90;;;;;;4981050;28;20229;-65
2022/09/30 07:48:51;;;;;;;9.38;7.05;;;11.50;99.90;;;;;;5004472;28;20320;-65
2022/09/30 07:51:22;;;;;;;12.60;8.20;;;11.70;99.90;;;;;;5005682;28;20320;-65
2022/09/30 07:53:51;;;;;;;8.60;7.75;;;11.80;99.90;;;;;;4984537;28;20222;-64
2022/09/30 07:56:18;;;;;;;11.02;8.13;;;11.80;99.90;;;;;;4975408;28;20237;-65
2022/09/30 07:58:49;;;;;;;8.23;7.28;;;11.80;99.90;;;;;;5009349;28;20244;-65
2022/09/30 08:01:16;;;;;;;9.35;7.88;;;11.70;99.90;;;;;;4969985;28;20222;-64
2022/09/30 08:03:44;;;;;;;10.38;9.15;;;11.70;99.90;;;;;;4997451;28;20714;-64
2022/09/30 08:06:13;;;;;;;11.02;9.43;;;12.20;99.90;;;;;;4994061;28;20739;-65
2022/09/30 08:08:42;;;;;;;11.85;9.85;;;12.00;99.90;;;;;;4976318;28;20677;-65
2022/09/30 08:11:10;;;;;;;11.07;9.75;;;9.40;99.90;;;;;;4992020;28;20640;-65
2022/09/30 08:13:37;;;;;;;10.63;8.63;;;;;;;;;;4981172;28;20232;-64
2022/09/30 08:16:05;;;;;;;11.30;9.20;;;11.80;99.90;;;;;;4975251;28;20222;-64
2022/09/30 08:18:31;;;;;;;9.85;8.60;;;12.00;99.90;;;;;;4993549;28;21308;-64
2022/09/30 08:21:03;;;;;;;10.98;7.85;;;12.20;99.90;;;;;;5006290;28;20221;-65
2022/09/30 08:23:30;;;;;;;10.75;7.53;;;11.90;99.90;;;;;;4990597;28;20225;-64
2022/09/30 08:26:03;;;;;;;11.25;7.72;;;12.10;99.90;;;;;;4992694;28;20230;-64
2022/09/30 08:28:30;;;;;;;8.48;6.85;;;12.30;99.90;;;;;;4958584;28;20226;-64
2022/09/30 08:31:03;;;;;;;9.68;7.13;;;;;;;;;;4981929;28;20229;-65
2022/09/30 08:33:30;;;;;;;9.82;7.93;;;;;;;;;;4999929;28;21191;-65
2022/09/30 08:36:01;;;;;;;10.23;7.57;;;12.20;99.90;;;;;;4998523;28;20222;-65
2022/09/30 08:38:27;;;;;;;8.30;7.07;;;12.40;99.90;;;;;;5002837;28;20826;-65
2022/09/30 08:41:04;;;;;;;10.05;6.78;;;12.30;99.90;;;;;;4992694;28;20210;-64
2022/09/30 08:43:37;;;;;;;8.05;7.18;;;11.60;99.90;;;;;;4968919;28;20212;-65
2022/09/30 08:46:12;;;;;;;8.98;7.35;;;12.40;99.90;;;;;;4991728;28;20610;-62
2022/09/30 08:48:47;;;;;;;10.70;7.75;;;12.40;99.90;;;;;;4995565;28;20206;-65
2022/09/30 08:51:29;;;;;;;10.57;7.82;;;12.40;99.90;;;;;;5003413;28;20198;-64
2022/09/30 08:53:59;;;;;;;8.63;7.68;;;12.60;99.90;;;;;;5000568;28;20225;-64
2022/09/30 08:56:30;;;;;;;8.48;7.53;;;12.60;99.90;;;;;;4986256;28;20240;-63
2022/09/30 08:59:01;;;;;;;9.65;7.10;;;12.80;99.90;;;;;;4969826;28;20226;-64
2022/09/30 09:01:32;;;;;;;8.85;6.47;;;12.40;99.90;;;;;;4986072;28;20234;-65
2022/09/30 09:04:01;;;;;;;8.50;5.28;;;12.60;99.90;;;;;;4997133;28;20253;-65
2022/09/30 09:06:34;;;;;;;7.68;5.25;;;12.60;99.90;;;;;;5003614;28;20417;-65
2022/09/30 09:09:11;;;;;;;8.00;5.10;;;12.60;99.90;;;;;;4993996;28;20241;-65
2022/09/30 09:11:59;;;;;;;10.57;4.47;;;12.80;99.90;;;;;;4987626;28;20864;-65
2022/09/30 09:14:38;;;;;;;5.95;5.10;;;13.20;99.90;;;;;;4981786;28;20202;-65
2022/09/30 09:17:15;;;;;;;5.03;4.53;;;12.70;99.90;;;;;;4995892;28;20202;-65
2022/09/30 09:19:47;;;;;;;5.50;4.47;;;12.80;99.90;;;;;;4991551;28;20210;-65
2022/09/30 09:22:14;;;;;;;5.15;4.40;;;12.70;99.90;;;;;;5010135;28;20237;-66
2022/09/30 09:24:46;;;;;;;5.53;4.10;;;12.70;99.90;;;;;;5001759;28;20878;-64
2022/09/30 09:27:19;;;;;;;4.68;4.13;;;12.70;99.90;;;;;;4960232;28;20962;-65
2022/09/30 09:29:58;;;;;;;8.02;3.90;;;13.40;99.90;;;;;;4976871;28;20242;-64
2022/09/30 09:32:28;;;;;;;4.63;4.22;;;12.70;99.90;;;;;;4988390;28;20834;-65
2022/09/30 09:34:59;;;;;;;7.85;4.45;;;12.90;99.90;;;;;;4994972;28;20681;-65
2022/09/30 09:40:22;;;;;;;10.27;4.70;;;12.80;99.90;;;;;;4999469;28;20218;-65
2022/09/30 09:43:05;;;;;;;5.85;4.63;;;13.00;99.90;;;;;;4982043;28;20229;-64
2022/09/30 09:45:38;;;;;;;8.18;5.10;;;12.90;99.90;;;;;;4987146;28;20666;-65
2022/09/30 09:48:11;;;;;;;5.90;4.40;;;12.70;99.90;;;;;;4968228;28;20230;-65
2022/09/30 09:50:49;;;;;;;5.20;4.70;;;12.90;99.90;;;;;;5009958;28;20198;-65
2022/09/30 09:53:29;;;;;;;5.60;4.43;;;13.00;99.90;;;;;;4992563;28;20711;-65
2022/09/30 09:55:58;;;;;;;7.35;5.30;;;12.40;99.90;;;;;;4999358;28;20225;-65
2022/09/30 09:58:27;;;;;;;5.90;5.30;;;13.00;99.90;;;;;;4984531;28;20324;-64
2022/09/30 10:01:10;;;;;;;6.07;5.13;;;13.20;99.90;;;;;;4973603;28;20234;-65
2022/09/30 10:03:37;;;;;;;5.57;4.70;;;13.10;99.90;;;;;;4975063;28;20225;-65
2022/09/30 10:06:06;;;;;;;6.75;4.97;;;13.10;99.90;;;;;;5004424;28;20256;-65
2022/09/30 10:08:35;;;;;;;9.23;5.22;;;13.10;99.90;;;;;;5002663;28;20230;-65
2022/09/30 10:11:04;;;;;;;9.18;6.05;;;13.10;99.90;;;;;;4998045;28;20253;-66
2022/09/30 10:13:41;;;;;;;9.07;5.05;;;13.30;99.90;;;;;;4989181;28;20602;-64
2022/09/30 10:16:27;;;;;;;6.25;5.13;;;13.20;99.90;;;;;;4968926;28;20232;-65
2022/09/30 10:18:54;;;;;;;6.95;5.25;;;13.30;99.90;;;;;;4975183;28;20213;-65
2022/09/30 10:21:23;;;;;;;6.95;5.45;;;13.30;99.90;;;;;;5002999;28;20209;-66
2022/09/30 10:23:50;;;;;;;7.15;5.32;;;13.20;99.90;;;;;;5003200;28;20305;-65
2022/09/30 10:26:20;;;;;;;7.45;4.78;;;13.40;99.90;;;;;;4995139;28;20226;-65
2022/09/30 10:28:50;;;;;;;8.48;4.63;;;13.50;99.90;;;;;;4984467;28;20232;-64
2022/09/30 10:31:23;;;;;;;7.45;5.70;;;13.40;99.90;;;;;;4979016;28;20207;-65
2022/09/30 10:33:56;;;;;;;8.00;5.25;;;13.40;99.90;;;;;;4978758;28;21133;-64
2022/09/30 10:36:31;;;;;;;7.45;5.25;;;13.50;99.90;;;;;;4990105;28;20205;-65
2022/09/30 10:39:01;;;;;;;8.48;4.80;;;13.70;99.90;;;;;;5006505;28;20263;-64
2022/09/30 10:41:31;;;;;;;6.68;4.75;;;13.70;99.90;;;;;;4991706;28;20206;-64
2022/09/30 10:44:02;;;;;;;9.65;4.72;;;12.60;99.90;;;;;;4997165;28;20218;-64
2022/09/30 10:46:31;;;;;;;5.57;4.55;;;13.50;99.90;;;;;;4980642;28;21224;-66
2022/09/30 10:48:59;;;;;;;6.30;4.03;;;13.70;99.90;;;;;;4982009;28;20234;-64
2022/09/30 10:51:29;;;;;;;8.00;4.47;;;13.70;99.90;;;;;;4990015;28;20312;-64
2022/09/30 10:53:56;;;;;;;7.22;4.82;;;13.80;99.90;;;;;;5009858;28;20671;-65
2022/09/30 10:56:39;;;;;;;6.43;4.60;;;13.00;99.90;;;;;;5004150;28;20202;-65
2022/09/30 10:59:18;;;;;;;5.78;4.72;;;13.80;99.90;;;;;;4966117;28;20230;-66
2022/09/30 11:01:50;;;;;;;7.18;4.00;;;13.80;99.90;;;;;;4992765;28;20233;-65
2022/09/30 11:04:25;;;;;;;4.13;3.70;;;13.70;99.90;;;;;;4952785;28;20221;-65
2022/09/30 11:06:58;;;;;;;6.25;3.33;;;13.80;99.90;;;;;;4986485;28;20222;-65
2022/09/30 11:09:33;;;;;;;8.88;3.67;;;14.10;99.90;;;;;;4987526;28;20221;-65
2022/09/30 11:12:05;;;;;;;3.70;3.10;;;14.10;99.70;;;;;;4982749;28;20625;-65
2022/09/30 11:14:39;;;;;;;5.15;3.42;;;14.10;99.90;;;;;;4984406;28;20305;-65
2022/09/30 11:17:24;;;;;;;7.10;3.30;;;13.30;99.90;;;;;;4969711;28;21092;-66
2022/09/30 11:20:01;;;;;;;3.58;2.67;;;14.10;98.80;;;;;;4977197;28;20237;-65
2022/09/30 11:22:39;;;;;;;7.13;2.90;;;13.90;88.60;;;;;;4983590;28;20352;-65
2022/09/30 11:25:06;;;;;;;3.20;2.58;;;14.10;86.70;;;;;;4989323;28;20233;-65
2022/09/30 11:27:43;;;;;;;2.30;2.10;;;14.20;93.00;;;;;;4991989;28;20221;-65
2022/09/30 11:30:15;;;;;;;2.47;2.10;;;14.20;92.40;;;;;;4987713;28;20206;-65
2022/09/30 11:33:12;;;;;;;3.50;3.20;;;14.10;91.10;;;;;;4969498;28;20305;-65
2022/09/30 11:35:51;;;;;;;3.60;3.10;;;14.20;91.00;;;;;;4976001;28;20230;-65
2022/09/30 11:38:40;;;;;;;3.15;2.85;;;14.00;88.40;;;;;;4990020;28;20221;-65
2022/09/30 11:41:13;;;;;;;6.63;2.88;;;13.80;87.80;;;;;;5004808;28;20213;-65
2022/09/30 11:43:51;;;;;;;4.28;3.08;;;13.90;86.60;;;;;;5007750;28;20229;-65
2022/09/30 11:46:40;;;;;;;3.88;2.92;;;13.90;90.10;;;;;;4994110;28;20198;-65
2022/09/30 11:49:38;;;;;;;4.07;2.75;;;14.10;92.50;;;;;;4978569;28;20230;-66
2022/09/30 11:52:14;;;;;;;3.97;3.13;;;13.90;92.80;;;;;;4992358;28;20206;-65
2022/09/30 11:54:56;;;;;;;4.68;2.80;;;14.10;92.10;;;;;;5010494;28;20201;-65
2022/09/30 11:57:30;;;;;;;3.80;2.85;;;14.10;91.90;;;;;;5006562;28;20207;-65
2022/09/30 12:00:01;;;;;;;3.05;2.50;;;14.30;88.70;;;;;;5009289;28;20205;-65
2022/09/30 12:02:36;;;;;;;2.80;2.33;;;14.30;90.10;;;;;;4975215;28;21308;-65
2022/09/30 12:05:09;;;;;;;2.38;2.13;;;14.20;88.40;;;;;;4959009;28;20225;-64
2022/09/30 12:07:41;;;;;;;1.85;1.75;;;14.40;87.90;;;;;;4984136;28;20235;-65
2022/09/30 12:10:21;;;;;;;2.58;1.75;;;14.20;86.70;;;;;;4977587;28;20221;-65
2022/09/30 12:12:51;;;;;;;2.67;1.90;;;14.20;84.90;;;;;;5001131;28;20675;-66
2022/09/30 12:15:22;;;;;;;8.15;2.30;;;13.70;87.30;;;;;;5003849;28;20202;-65
2022/09/30 12:17:57;;;;;;;4.38;2.28;;;14.30;88.70;;;;;;4992760;28;20696;-65
2022/09/30 12:20:29;;;;;;;4.45;2.45;;;14.30;90.30;;;;;;4976161;28;20213;-65
2022/09/30 12:23:00;;;;;;;3.10;2.38;;;14.10;92.60;;;;;;4986084;28;20305;-65
2022/09/30 12:25:32;;;;;;;4.50;2.85;;;14.20;84.60;;;;;;4980949;28;20747;-65
2022/09/30 12:30:15;;;;;;;2.40;2.05;;;14.20;82.50;;;;;;5005065;28;20234;-64
2022/09/30 12:31:01;;;;;;;2.60;2.40;;;16.60;91.40;;;;;;4973288;28;20885;-65
2022/09/30 12:33:44;;;;;;;3.58;2.38;;;14.20;87.50;;;;;;4981502;28;20209;-65
2022/09/30 12:36:38;;;;;;;3.88;2.47;;;14.40;86.30;;;;;;4956928;28;20229;-65
2022/09/30 12:39:38;;;;;;;5.53;2.10;;;14.40;94.50;;;;;;4974811;28;20284;-65
2022/09/30 12:42:22;;;;;;;2.45;2.03;;;14.40;99.90;;;;;;4991458;28;20206;-66
2022/09/30 12:45:17;;;;;;;2.40;2.20;;;14.40;99.90;;;;;;4973408;28;20229;-65
2022/09/30 12:47:47;;;;;;;2.78;2.58;;;14.30;99.90;;;;;;4972093;28;20684;-64
2022/09/30 12:50:19;;;;;;;2.45;2.25;;;14.20;99.90;;;;;;4971053;28;20225;-65
2022/09/30 12:52:46;;;;;;;2.90;1.85;;;14.20;99.90;;;;;;4955094;28;20229;-65
2022/09/30 12:55:22;;;;;;;2.38;1.90;;;14.30;99.90;;;;;;4976783;28;20237;-64
2022/09/30 12:57:50;;;;;;;4.03;2.10;;;11.30;99.90;;;;;;4984577;28;20223;-65
2022/09/30 13:00:19;;;;;;;2.80;1.85;;;14.30;99.90;;;;;;4986914;28;20217;-64
2022/09/30 13:02:49;;;;;;;4.88;4.28;;;14.70;99.90;;;;;;4980610;28;20225;-65
2022/09/30 13:05:50;;;;;;;5.57;2.33;;;14.50;99.90;;;;;;4999265;28;20217;-64
2022/09/30 13:08:46;;;;;;;2.30;2.10;;;14.60;99.90;;;;;;4971796;28;20231;-65
2022/09/30 13:11:38;;;;;;;3.25;2.92;;;14.70;99.90;;;;;;4988482;28;20203;-64
2022/09/30 13:14:32;;;;;;;3.10;2.65;;;14.70;99.90;;;;;;4974500;28;20194;-65
2022/09/30 13:17:03;;;;;;;3.78;2.90;;;14.60;99.90;;;;;;5008301;28;20194;-65